createdAt,value
2018-01-25T00:00:23.356Z,7.90
2018-01-25T00:02:50.884Z,8.00
2018-01-25T00:05:19.210Z,8.00
2018-01-25T00:07:46.729Z,8.00
2018-01-25T00:10:15.014Z,8.00
2018-01-25T00:12:43.330Z,8.10
2018-01-25T00:15:10.854Z,8.10
2018-01-25T00:17:38.399Z,8.10
2018-01-25T00:20:06.687Z,8.10
2018-01-25T00:22:34.233Z,8.10
2018-01-25T00:25:02.539Z,8.10
2018-01-25T00:27:30.091Z,8.10
2018-01-25T00:29:57.628Z,8.20
2018-01-25T00:32:25.943Z,8.20
2018-01-25T00:34:53.476Z,8.20
2018-01-25T00:37:21.798Z,8.30
2018-01-25T00:39:49.318Z,8.30
2018-01-25T00:42:17.637Z,8.30
2018-01-25T00:44:45.166Z,8.30
2018-01-25T00:47:12.724Z,8.40
2018-01-25T00:49:40.250Z,8.40
2018-01-25T00:52:07.798Z,8.40
2018-01-25T00:54:35.331Z,8.50
2018-01-25T00:57:02.874Z,8.50
2018-01-25T00:59:30.401Z,8.60
2018-01-25T01:01:58.721Z,8.60
2018-01-25T01:04:26.242Z,8.60
2018-01-25T01:06:54.557Z,8.60
2018-01-25T01:09:22.085Z,8.60
2018-01-25T01:11:50.402Z,8.60
2018-01-25T01:14:17.925Z,8.60
2018-01-25T01:16:46.242Z,8.60
2018-01-25T01:19:14.530Z,8.60
2018-01-25T01:21:42.082Z,8.60
2018-01-25T01:24:09.606Z,8.60
2018-01-25T01:26:44.002Z,8.60
2018-01-25T01:29:12.295Z,8.60
2018-01-25T01:31:39.842Z,8.60
2018-01-25T01:34:08.135Z,8.70
2018-01-25T01:36:35.674Z,8.70
2018-01-25T01:39:03.966Z,8.70
2018-01-25T01:41:32.277Z,8.70
2018-01-25T01:43:59.797Z,8.60
2018-01-25T01:46:28.107Z,8.70
2018-01-25T01:48:55.634Z,8.70
2018-01-25T01:51:23.990Z,8.80
2018-01-25T01:53:51.511Z,8.80
2018-01-25T01:56:19.049Z,8.80
2018-01-25T01:58:46.570Z,8.80
2018-01-25T02:01:14.119Z,8.80
2018-01-25T02:03:41.642Z,8.80
2018-01-25T02:06:09.185Z,8.80
2018-01-25T02:08:36.762Z,8.80
2018-01-25T02:11:04.302Z,8.80
2018-01-25T02:13:31.887Z,8.80
2018-01-25T02:16:00.153Z,8.90
2018-01-25T02:18:27.677Z,8.80
2018-01-25T02:20:55.969Z,8.90
2018-01-25T02:23:23.520Z,8.90
2018-01-25T02:25:51.906Z,8.90
2018-01-25T02:28:20.226Z,8.90
2018-01-25T02:30:47.748Z,8.90
2018-01-25T02:33:15.294Z,9.00
2018-01-25T02:35:43.583Z,9.00
2018-01-25T02:38:11.163Z,8.90
2018-01-25T02:40:38.714Z,8.90
2018-01-25T02:43:06.278Z,8.90
2018-01-25T02:45:33.834Z,9.00
2018-01-25T02:48:01.380Z,9.00
2018-01-25T02:50:29.680Z,9.00
2018-01-25T02:52:57.227Z,9.00
2018-01-25T02:55:24.750Z,9.10
2018-01-25T02:57:52.294Z,9.10
2018-01-25T03:00:19.820Z,9.10
2018-01-25T03:02:47.366Z,9.10
2018-01-25T03:05:14.894Z,9.10
2018-01-25T03:07:43.201Z,9.10
2018-01-25T03:10:10.722Z,9.10
2018-01-25T03:12:38.266Z,9.10
2018-01-25T03:15:05.798Z,9.10
2018-01-25T03:17:33.343Z,9.10
2018-01-25T03:20:00.870Z,9.10
2018-01-25T03:22:29.194Z,9.20
2018-01-25T03:24:57.022Z,9.20
2018-01-25T03:27:25.338Z,9.10
2018-01-25T03:29:52.858Z,9.10
2018-01-25T03:32:21.174Z,9.10
2018-01-25T03:34:48.706Z,9.00
2018-01-25T03:37:17.014Z,9.00
2018-01-25T03:39:44.548Z,9.00
2018-01-25T03:42:12.097Z,9.10
2018-01-25T03:44:40.385Z,9.00
2018-01-25T03:47:07.929Z,9.00
2018-01-25T03:49:36.217Z,9.00
2018-01-25T03:52:03.771Z,9.00
2018-01-25T03:54:32.060Z,9.00
2018-01-25T03:56:59.609Z,9.00
2018-01-25T03:59:27.962Z,9.00
2018-01-25T04:01:55.513Z,9.00
2018-01-25T04:04:23.038Z,8.90
2018-01-25T04:06:50.814Z,9.00
2018-01-25T04:09:18.338Z,9.00
2018-01-25T04:11:45.902Z,9.00
2018-01-25T04:14:13.426Z,9.00
2018-01-25T04:16:41.002Z,9.00
2018-01-25T04:19:09.294Z,8.90
2018-01-25T04:21:36.847Z,8.90
2018-01-25T04:24:05.138Z,8.90
2018-01-25T04:26:32.689Z,8.90
2018-01-25T04:29:00.978Z,8.80
2018-01-25T04:31:28.526Z,8.80
2018-01-25T04:33:56.142Z,8.80
2018-01-25T04:36:23.666Z,8.80
2018-01-25T04:38:51.214Z,8.80
2018-01-25T04:41:18.734Z,8.80
2018-01-25T04:43:46.281Z,8.80
2018-01-25T04:46:13.798Z,8.80
2018-01-25T04:48:41.345Z,8.80
2018-01-25T04:51:08.875Z,8.80
2018-01-25T04:53:36.422Z,8.80
2018-01-25T04:56:03.945Z,8.80
2018-01-25T04:58:31.485Z,8.80
2018-01-25T05:00:59.003Z,8.80
2018-01-25T05:03:26.546Z,8.90
2018-01-25T05:05:54.073Z,8.80
2018-01-25T05:08:21.623Z,8.80
2018-01-25T05:10:49.150Z,8.80
2018-01-25T05:13:16.701Z,8.80
2018-01-25T05:15:44.225Z,8.90
2018-01-25T05:18:11.774Z,8.80
2018-01-25T05:20:39.294Z,8.80
2018-01-25T05:23:08.409Z,8.80
2018-01-25T05:25:36.698Z,8.80
2018-01-25T05:28:04.249Z,8.80
2018-01-25T05:30:31.774Z,8.70
2018-01-25T05:32:59.342Z,8.70
2018-01-25T05:35:26.866Z,8.70
2018-01-25T05:37:54.414Z,8.60
2018-01-25T05:40:21.938Z,8.70
2018-01-25T05:42:50.253Z,8.60
2018-01-25T05:45:17.779Z,8.60
2018-01-25T05:47:45.335Z,8.50
2018-01-25T05:50:13.618Z,8.50
2018-01-25T05:52:41.173Z,8.50
2018-01-25T05:55:08.710Z,8.40
2018-01-25T05:57:36.263Z,8.40
2018-01-25T06:00:03.816Z,8.30
2018-01-25T06:02:31.365Z,8.30
2018-01-25T06:04:58.889Z,8.30
2018-01-25T06:07:26.437Z,8.30
2018-01-25T06:09:53.966Z,8.20
2018-01-25T06:12:21.542Z,8.20
2018-01-25T06:14:49.094Z,8.20
2018-01-25T06:17:16.654Z,8.10
2018-01-25T06:19:44.217Z,8.20
2018-01-25T06:22:12.513Z,8.20
2018-01-25T06:24:40.059Z,8.10
2018-01-25T06:27:08.355Z,8.10
2018-01-25T06:29:35.909Z,8.10
2018-01-25T06:52:08.246Z,8.10
2018-01-25T06:54:35.803Z,8.10
2018-01-25T06:57:03.342Z,8.10
2018-01-25T06:59:30.900Z,8.10
2018-01-25T07:01:58.438Z,8.00
2018-01-25T07:04:26.770Z,7.90
2018-01-25T07:06:54.307Z,7.90
2018-01-25T07:09:21.873Z,7.80
2018-01-25T07:11:49.404Z,7.80
2018-01-25T07:14:17.730Z,7.80
2018-01-25T07:16:45.288Z,7.80
2018-01-25T07:19:12.838Z,7.80
2018-01-25T07:21:40.361Z,7.70
2018-01-25T07:24:08.678Z,7.80
2018-01-25T07:26:36.214Z,7.80
2018-01-25T07:29:03.771Z,7.80
2018-01-25T07:31:31.299Z,7.80
2018-01-25T07:33:58.857Z,7.70
2018-01-25T07:36:26.389Z,7.70
2018-01-25T07:38:53.951Z,7.80
2018-01-25T07:41:21.482Z,7.80
2018-01-25T07:43:49.030Z,7.80
2018-01-25T07:46:16.563Z,7.70
2018-01-25T07:48:44.121Z,7.80
2018-01-25T07:51:11.656Z,7.80
2018-01-25T07:53:39.218Z,7.80
2018-01-25T07:56:06.762Z,7.80
2018-01-25T07:58:34.314Z,7.80
2018-01-25T08:01:01.834Z,7.80
2018-01-25T08:03:30.158Z,7.80
2018-01-25T08:05:57.681Z,7.80
2018-01-25T08:08:25.229Z,7.80
2018-01-25T08:10:53.521Z,7.90
2018-01-25T08:16:22.025Z,7.90
2018-01-25T08:18:49.579Z,7.80
2018-01-25T08:21:17.112Z,7.90
2018-01-25T08:23:44.670Z,7.90
2018-01-25T08:26:12.192Z,7.80
2018-01-25T08:28:39.743Z,7.90
2018-01-25T08:31:07.276Z,7.90
2018-01-25T08:33:34.831Z,7.90
2018-01-25T08:36:03.126Z,7.90
2018-01-25T08:38:30.696Z,7.90
2018-01-25T08:40:58.226Z,7.90
2018-01-25T08:43:26.549Z,7.90
2018-01-25T08:45:54.077Z,7.90
2018-01-25T08:48:21.629Z,7.90
2018-01-25T08:50:49.157Z,8.00
2018-01-25T08:53:16.710Z,8.00
2018-01-25T08:55:44.242Z,8.00
2018-01-25T08:58:11.797Z,8.00
2018-01-25T09:00:39.359Z,8.00
2018-01-25T09:03:06.951Z,8.00
2018-01-25T09:05:34.473Z,8.10
2018-01-25T09:08:02.037Z,8.00
2018-01-25T09:10:29.565Z,8.00
2018-01-25T09:12:57.123Z,8.10
2018-01-25T09:15:25.418Z,8.10
2018-01-25T09:17:52.974Z,8.00
2018-01-25T09:20:20.501Z,8.10
2018-01-25T09:22:48.834Z,8.10
2018-01-25T09:25:16.366Z,8.10
2018-01-25T09:27:43.921Z,8.10
2018-01-25T09:30:11.453Z,8.10
2018-01-25T09:32:39.010Z,8.20
2018-01-25T09:35:06.535Z,8.10
2018-01-25T09:37:34.081Z,8.20
2018-01-25T09:40:01.611Z,8.20
2018-01-25T09:42:29.934Z,8.20
2018-01-25T09:44:57.453Z,8.20
2018-01-25T09:47:25.014Z,8.20
2018-01-25T09:49:52.546Z,8.20
2018-01-25T09:52:20.078Z,8.20
2018-01-25T09:54:47.629Z,8.20
2018-01-25T09:57:15.145Z,8.20
2018-01-25T09:59:43.495Z,8.20
2018-01-25T10:02:11.017Z,8.10
2018-01-25T10:04:38.566Z,8.10
2018-01-25T10:07:06.111Z,8.10
2018-01-25T10:09:33.665Z,8.10
2018-01-25T10:12:01.201Z,8.20
2018-01-25T10:14:28.897Z,8.20
2018-01-25T10:16:56.430Z,8.20
2018-01-25T10:19:24.745Z,8.10
2018-01-25T10:21:52.281Z,8.10
2018-01-25T10:24:20.598Z,8.20
2018-01-25T10:26:48.126Z,8.20
2018-01-25T10:29:15.682Z,8.30
2018-01-25T10:31:43.218Z,8.30
2018-01-25T10:34:10.799Z,8.30
2018-01-25T10:36:38.334Z,8.20
2018-01-25T10:39:05.880Z,8.30
2018-01-25T10:41:33.460Z,8.30
2018-01-25T10:44:00.985Z,8.30
2018-01-25T10:46:28.505Z,8.20
2018-01-25T10:48:56.053Z,8.30
2018-01-25T10:51:24.341Z,8.20
2018-01-25T10:53:51.893Z,8.10
2018-01-25T10:56:19.429Z,8.20
2018-01-25T10:58:46.982Z,8.20
2018-01-25T11:01:20.249Z,8.10
2018-01-25T11:03:47.793Z,8.10
2018-01-25T11:06:15.329Z,8.10
2018-01-25T11:08:42.877Z,8.10
2018-01-25T11:11:11.176Z,8.20
2018-01-25T11:13:38.726Z,8.10
2018-01-25T11:16:06.261Z,8.10
2018-01-25T11:18:33.820Z,8.20
2018-01-25T11:21:02.122Z,8.30
2018-01-25T11:23:29.683Z,8.30
2018-01-25T11:25:57.214Z,8.40
2018-01-25T11:28:24.737Z,8.40
2018-01-25T11:30:52.290Z,8.50
2018-01-25T11:33:19.817Z,8.50
2018-01-25T11:35:48.133Z,8.50
2018-01-25T11:38:15.667Z,8.50
2018-01-25T11:40:43.218Z,8.40
2018-01-25T11:43:10.751Z,8.40
2018-01-25T11:45:39.101Z,8.40
2018-01-25T11:48:06.625Z,8.40
2018-01-25T11:50:34.182Z,8.40
2018-01-25T11:53:01.706Z,8.50
2018-01-25T11:55:29.267Z,8.40
2018-01-25T11:57:56.790Z,8.50
2018-01-25T12:00:24.346Z,8.40
2018-01-25T12:02:51.869Z,8.40
2018-01-25T12:05:19.425Z,8.40
2018-01-25T12:07:47.718Z,8.40
2018-01-25T12:10:15.274Z,8.40
2018-01-25T12:12:42.805Z,8.40
2018-01-25T12:15:10.362Z,8.40
2018-01-25T12:17:37.889Z,8.40
2018-01-25T12:20:05.499Z,8.40
2018-01-25T12:22:32.994Z,8.50
2018-01-25T12:25:00.548Z,8.40
2018-01-25T12:27:28.075Z,8.40
2018-01-25T12:29:56.401Z,8.40
2018-01-25T12:32:24.054Z,8.30
2018-01-25T12:34:51.610Z,8.40
2018-01-25T12:37:19.130Z,8.30
2018-01-25T12:39:47.450Z,8.30
2018-01-25T12:42:14.988Z,8.30
2018-01-25T12:44:42.547Z,8.30
2018-01-25T12:47:10.087Z,8.40
2018-01-25T12:49:38.418Z,8.30
2018-01-25T12:52:06.717Z,8.40
2018-01-25T12:54:34.277Z,8.30
2018-01-25T12:57:01.817Z,8.40
2018-01-25T12:59:29.378Z,8.40
2018-01-25T13:01:56.906Z,8.50
2018-01-25T13:04:24.460Z,8.40
2018-01-25T13:06:51.989Z,8.40
2018-01-25T13:09:19.546Z,8.40
2018-01-25T13:11:47.083Z,8.40
2018-01-25T13:14:14.634Z,8.40
2018-01-25T13:16:42.157Z,8.50
2018-01-25T13:19:09.757Z,8.50
2018-01-25T13:21:37.254Z,8.50
2018-01-25T13:24:05.577Z,8.60
2018-01-25T13:26:33.104Z,8.50
2018-01-25T13:29:00.653Z,8.60
2018-01-25T13:31:28.951Z,8.50
2018-01-25T13:33:56.510Z,8.50
2018-01-25T13:36:24.042Z,8.50
2018-01-25T13:38:52.346Z,8.50
2018-01-25T13:41:19.902Z,8.50
2018-01-25T13:43:47.439Z,8.50
2018-01-25T13:46:15.749Z,8.50
2018-01-25T13:48:43.279Z,8.40
2018-01-25T13:51:11.605Z,8.50
2018-01-25T13:53:39.137Z,8.50
2018-01-25T13:56:06.703Z,8.50
2018-01-25T13:58:34.230Z,8.50
2018-01-25T14:01:02.554Z,8.50
2018-01-25T14:03:30.087Z,8.50
2018-01-25T14:05:57.645Z,8.40
2018-01-25T14:08:25.941Z,8.40
2018-01-25T14:10:53.499Z,8.40
2018-01-25T14:13:21.031Z,8.40
2018-01-25T14:15:49.350Z,8.30
2018-01-25T14:18:16.881Z,8.30
2018-01-25T14:20:44.435Z,8.30
2018-01-25T14:23:12.731Z,8.30
2018-01-25T14:25:40.285Z,8.30
2018-01-25T14:28:07.822Z,8.30
2018-01-25T14:30:36.142Z,8.30
2018-01-25T14:33:03.673Z,8.30
2018-01-25T14:35:31.990Z,8.30
2018-01-25T14:37:59.517Z,8.30
2018-01-25T14:40:27.085Z,8.40
2018-01-25T14:42:54.674Z,8.40
2018-01-25T14:45:22.229Z,8.40
2018-01-25T14:47:49.753Z,8.40
2018-01-25T14:50:17.308Z,8.40
2018-01-25T14:52:45.615Z,8.40
2018-01-25T14:55:13.169Z,8.40
2018-01-25T14:57:40.701Z,8.40
2018-01-25T15:00:09.027Z,8.40
2018-01-25T15:02:36.553Z,8.40
2018-01-25T15:05:04.103Z,8.40
2018-01-25T15:07:32.395Z,8.40
2018-01-25T15:09:59.949Z,8.40
2018-01-25T15:12:27.510Z,8.40
2018-01-25T15:14:55.066Z,8.40
2018-01-25T15:17:22.593Z,8.40
2018-01-25T15:19:50.145Z,8.40
2018-01-25T15:22:18.156Z,8.30
2018-01-25T15:24:45.242Z,8.30
2018-01-25T15:27:18.583Z,8.30
2018-01-25T15:29:46.906Z,8.30
2018-01-25T15:32:14.434Z,8.20
2018-01-25T15:34:41.982Z,8.30
2018-01-25T15:37:10.281Z,8.30
2018-01-25T15:39:37.838Z,8.30
2018-01-25T15:42:05.370Z,8.30
2018-01-25T15:44:33.690Z,8.30
2018-01-25T15:47:01.217Z,8.30
2018-01-25T15:49:29.544Z,8.30
2018-01-25T15:51:57.845Z,8.30
2018-01-25T15:54:25.405Z,8.30
2018-01-25T15:56:52.938Z,8.30
2018-01-25T15:59:20.470Z,8.30
2018-01-25T16:01:48.031Z,8.30
2018-01-25T16:04:15.557Z,8.30
2018-01-25T16:06:43.113Z,8.30
2018-01-25T16:09:10.642Z,8.20
2018-01-25T16:11:38.197Z,8.20
2018-01-25T16:14:05.727Z,8.20
2018-01-25T16:16:33.277Z,8.30
2018-01-25T16:19:01.565Z,8.30
2018-01-25T16:21:29.124Z,8.30
2018-01-25T16:23:56.658Z,8.20
2018-01-25T16:26:24.981Z,8.30
2018-01-25T16:28:52.519Z,8.30
2018-01-25T16:31:20.070Z,8.20
2018-01-25T16:33:48.363Z,8.20
2018-01-25T16:36:15.921Z,8.20
2018-01-25T16:38:43.446Z,8.20
2018-01-25T16:41:11.769Z,8.30
2018-01-25T16:43:39.298Z,8.30
2018-01-25T16:46:06.849Z,8.30
2018-01-25T16:48:35.150Z,8.20
2018-01-25T16:51:02.697Z,8.20
2018-01-25T16:53:30.994Z,8.30
2018-01-25T16:55:58.549Z,8.30
2018-01-25T16:58:26.075Z,8.30
2018-01-25T17:00:54.394Z,8.30
2018-01-25T17:03:21.946Z,8.30
2018-01-25T17:05:49.503Z,8.30
2018-01-25T17:08:17.027Z,8.30
2018-01-25T17:10:45.429Z,8.30
2018-01-25T17:13:12.966Z,8.30
2018-01-25T17:15:40.525Z,8.30
2018-01-25T17:18:08.105Z,8.30
2018-01-25T17:20:36.418Z,8.50
2018-01-25T17:23:03.946Z,8.50
2018-01-25T17:25:32.254Z,8.30
2018-01-25T17:27:59.782Z,8.20
2018-01-25T17:30:27.329Z,8.20
2018-01-25T17:32:55.620Z,7.90
2018-01-25T17:35:23.927Z,7.70
2018-01-25T17:37:51.446Z,7.70
2018-01-25T17:40:19.761Z,7.70
2018-01-25T17:42:47.282Z,7.60
2018-01-25T17:45:15.611Z,7.90
2018-01-25T17:47:43.134Z,7.90
2018-01-25T17:50:10.681Z,7.90
2018-01-25T17:52:38.970Z,7.70
2018-01-25T17:55:06.530Z,7.70
2018-01-25T17:57:34.057Z,7.70
2018-01-25T18:00:01.618Z,7.70
2018-01-25T18:02:29.142Z,7.70
2018-01-25T18:04:56.665Z,7.70
2018-01-25T18:07:24.982Z,7.70
2018-01-25T18:09:52.510Z,7.70
2018-01-25T18:12:20.060Z,7.60
2018-01-25T18:14:47.586Z,7.60
2018-01-25T18:17:15.930Z,7.50
2018-01-25T18:19:43.457Z,7.50
2018-01-25T18:22:11.014Z,7.40
2018-01-25T18:24:39.302Z,7.70
2018-01-25T18:27:06.853Z,7.60
2018-01-25T18:29:34.386Z,7.80
2018-01-25T18:32:01.996Z,7.80
2018-01-25T18:34:29.518Z,7.60
2018-01-25T18:36:57.842Z,7.50
2018-01-25T18:39:25.366Z,7.50
2018-01-25T18:41:52.925Z,7.60
2018-01-25T18:44:21.221Z,7.60
2018-01-25T18:46:48.771Z,7.60
2018-01-25T18:49:16.322Z,7.60
2018-01-25T18:51:44.639Z,7.50
2018-01-25T18:54:12.166Z,7.50
2018-01-25T18:56:39.712Z,7.40
2018-01-25T18:59:08.007Z,7.20
2018-01-25T19:01:35.559Z,7.10
2018-01-25T19:04:03.865Z,7.10
2018-01-25T19:06:31.414Z,7.10
2018-01-25T19:08:58.944Z,7.10
2018-01-25T19:11:27.270Z,7.20
2018-01-25T19:13:54.958Z,7.10
2018-01-25T19:16:22.503Z,7.20
2018-01-25T19:18:50.022Z,7.10
2018-01-25T19:21:17.566Z,7.10
2018-01-25T19:23:45.879Z,7.20
2018-01-25T19:26:13.405Z,7.10
2018-01-25T19:28:41.721Z,7.20
2018-01-25T19:31:09.239Z,7.20
2018-01-25T19:33:37.598Z,7.20
2018-01-25T19:36:05.126Z,7.20
2018-01-25T19:38:32.682Z,7.20
2018-01-25T19:41:00.205Z,7.30
2018-01-25T19:43:28.522Z,7.10
2018-01-25T19:45:56.047Z,7.10
2018-01-25T19:48:23.593Z,7.00
2018-01-25T19:50:51.926Z,7.00
2018-01-25T19:53:19.491Z,7.00
2018-01-25T19:55:47.023Z,7.00
2018-01-25T19:58:14.575Z,7.10
2018-01-25T20:00:42.097Z,7.10
2018-01-25T20:03:09.645Z,7.10
2018-01-25T20:05:37.166Z,7.00
2018-01-25T20:08:04.692Z,7.10
2018-01-25T20:10:33.002Z,6.90
2018-01-25T20:13:00.522Z,6.90
2018-01-25T20:15:28.842Z,6.90
2018-01-25T20:17:56.362Z,6.90
2018-01-25T20:20:24.674Z,7.00
2018-01-25T20:22:52.197Z,7.00
2018-01-25T20:25:20.511Z,7.10
2018-01-25T20:27:48.029Z,7.10
2018-01-25T20:30:16.351Z,7.10
2018-01-25T20:32:43.870Z,7.10
2018-01-25T20:35:12.186Z,6.80
2018-01-25T20:37:39.724Z,6.80
2018-01-25T20:40:07.277Z,6.90
2018-01-25T20:42:34.814Z,6.90
2018-01-25T20:45:02.374Z,6.90
2018-01-25T20:47:29.906Z,6.90
2018-01-25T20:49:57.454Z,6.90
2018-01-25T20:52:25.002Z,7.10
2018-01-25T20:54:52.550Z,6.90
2018-01-25T20:57:20.070Z,6.90
2018-01-25T20:59:47.613Z,6.90
2018-01-25T21:02:15.141Z,7.00
2018-01-25T21:04:42.707Z,7.00
2018-01-25T21:07:10.254Z,7.10
2018-01-25T21:09:37.776Z,7.10
2018-01-25T21:12:06.106Z,6.90
2018-01-25T21:14:33.893Z,6.90
2018-01-25T21:17:02.276Z,7.00
2018-01-25T21:19:29.817Z,7.00
2018-01-25T21:21:57.373Z,6.90
2018-01-25T21:24:24.893Z,6.80
2018-01-25T21:26:52.479Z,6.80
2018-01-25T21:29:20.003Z,6.90
2018-01-25T21:31:48.398Z,6.80
2018-01-25T21:34:15.930Z,6.80
2018-01-25T21:36:43.481Z,6.80
2018-01-25T21:39:11.035Z,6.80
2018-01-25T21:41:38.607Z,6.70
2018-01-25T21:44:06.165Z,6.80
2018-01-25T21:46:33.727Z,6.80
2018-01-25T21:49:01.252Z,6.80
2018-01-25T21:51:29.571Z,6.80
2018-01-25T21:53:57.865Z,6.80
2018-01-25T21:56:26.315Z,6.90
2018-01-25T21:58:53.854Z,6.80
2018-01-25T22:01:21.405Z,6.80
2018-01-25T22:03:48.939Z,6.80
2018-01-25T22:06:16.497Z,6.80
2018-01-25T22:08:44.174Z,6.80
2018-01-25T22:11:11.725Z,6.80
2018-01-25T22:13:39.258Z,6.80
2018-01-25T22:16:07.569Z,6.70
2018-01-25T22:18:35.101Z,6.80
2018-01-25T22:21:03.425Z,6.70
2018-01-25T22:23:30.949Z,6.70
2018-01-25T22:25:58.502Z,6.70
2018-01-25T22:28:26.298Z,6.70
2018-01-25T22:30:53.813Z,6.70
2018-01-25T22:33:22.360Z,6.60
2018-01-25T22:35:50.690Z,6.70
2018-01-25T22:38:18.246Z,6.70
2018-01-25T22:40:45.925Z,6.70
2018-01-25T22:43:13.481Z,6.80
2018-01-25T22:45:41.006Z,6.80
2018-01-25T22:48:09.344Z,6.70
2018-01-25T22:50:37.025Z,6.70
2018-01-25T22:53:04.574Z,6.70
2018-01-25T22:55:32.113Z,6.70
2018-01-25T22:57:59.659Z,6.70
2018-01-25T23:00:39.194Z,6.60
2018-01-25T23:03:06.745Z,6.60
2018-01-25T23:05:35.034Z,6.60
2018-01-25T23:08:02.626Z,6.50
2018-01-25T23:10:30.159Z,6.60
2018-01-25T23:12:57.851Z,6.50
2018-01-25T23:15:25.418Z,6.50
2018-01-25T23:17:52.969Z,6.50
2018-01-25T23:20:20.513Z,6.50
2018-01-25T23:22:48.066Z,6.50
2018-01-25T23:25:15.735Z,6.50
2018-01-25T23:27:43.286Z,6.50
2018-01-25T23:30:10.813Z,6.50
2018-01-25T23:32:39.132Z,6.50
2018-01-25T23:35:06.662Z,6.50
2018-01-25T23:37:34.993Z,6.50
2018-01-25T23:40:02.515Z,6.50
2018-01-25T23:42:30.187Z,6.50
2018-01-25T23:44:57.734Z,6.50
2018-01-25T23:47:25.257Z,6.40
2018-01-25T23:49:52.825Z,6.50
2018-01-25T23:52:21.125Z,6.30
2018-01-25T23:54:48.736Z,6.30
2018-01-25T23:57:17.061Z,6.30
2018-01-25T23:59:45.382Z,6.30
